Impacts TAF Board
For situational awareness. Not to be used for flight planning purposes.
IDs:

KLAS - Las Vegas/McCarran I, NV, US

Issued at 2330 UTC 21 Sep 2021
Updated at 2351 UTC 21 Sep 2021
Potential Impact None Slight Moderate High
Time2256Z 22/00Z 22/01Z 22/02Z 22/03Z 22/04Z 22/05Z 22/06Z 22/07Z 22/08Z 22/09Z 22/10Z 22/11Z 22/12Z>>
Type OBS PRVL PRVL PRVL PRVL PRVL PRVL PRVL PRVL PRVL PRVL PRVL PRVL PRVL
VIS 10 >6 >6 >6 >6 >6 >6 >6 >6 >6 >6 >6 >6 >6
CIG -- -- -- -- -- -- -- -- -- -- -- -- -- --
Cover CLR SKC SKC SKC SKC SKC SKC SKC SKC SKC SKC SKC SKC SKC
FltCat VFR VFR VFR VFR VFR VFR VFR VFR VFR VFR VFR VFR VFR VFR
WX -- -- -- -- -- -- -- -- -- -- -- -- -- --
WDir 90 80 80 80 80 240 240 240 240 240 240 240 240 240
WSpd 4 5 5 5 5 6 6 6 6 6 6 6 6 6
WGst -- -- -- -- -- -- -- -- -- -- -- -- -- --
Raw TAF
KLAS 212330Z 2200/2306 08005KT P6SM SKC
  FM220400 24006KT P6SM SKC
  FM221600 10006KT P6SM SKC
  FM230200 21006KT P6SM SKC


Raw METAR
KLAS 212256Z 09004KT 10SM CLR 32/M07 A3018 RMK AO2 SLP200 T03171072
KLAS 212156Z 02006KT 10SM CLR 32/M07 A3020 RMK AO2 SLP203 T03171072
KLAS 212056Z 04009KT 10SM CLR 31/M07 A3022 RMK AO2 SLP210 T03111072 58024

METAR Board
Radar Display
Forecast Discussion
For situational awareness. Not to be used for flight planning purposes.